createdAt,value
2019-05-05T00:02:08.469Z,8.60
2019-05-05T00:04:56.627Z,10.18
2019-05-05T00:07:40.357Z,8.48
2019-05-05T00:10:25.302Z,9.13
2019-05-05T00:13:21.637Z,7.55
2019-05-05T00:16:22.161Z,8.78
2019-05-05T00:19:04.861Z,9.78
2019-05-05T00:21:41.609Z,13.55
2019-05-05T00:26:52.409Z,8.55
2019-05-05T00:29:28.556Z,10.55
2019-05-05T00:32:11.411Z,8.25
2019-05-05T00:34:47.987Z,78.20
2019-05-05T00:37:30.513Z,35.98
2019-05-05T00:40:06.535Z,16.50
2019-05-05T00:42:49.525Z,13.83
2019-05-05T00:45:26.359Z,11.83
2019-05-05T00:48:36.064Z,11.85
2019-05-05T00:51:12.116Z,11.93
2019-05-05T00:53:55.587Z,12.85
2019-05-05T00:56:34.241Z,12.82
2019-05-05T00:59:19.786Z,11.70
2019-05-05T01:02:18.286Z,10.48
2019-05-05T01:05:20.068Z,14.87
2019-05-05T01:07:46.775Z,13.98
2019-05-05T01:15:28.048Z,11.77
2019-05-05T01:18:04.226Z,12.53
2019-05-05T01:20:46.797Z,12.70
2019-05-05T01:23:24.389Z,12.82
2019-05-05T01:26:07.389Z,11.08
2019-05-05T01:28:44.677Z,18.87
2019-05-05T01:31:28.576Z,12.75
2019-05-05T01:34:24.379Z,11.73
2019-05-05T01:37:11.849Z,14.63
2019-05-05T01:40:00.889Z,12.90
2019-05-05T01:45:01.457Z,11.22
2019-05-05T01:47:37.074Z,10.15
2019-05-05T01:50:21.579Z,9.68
2019-05-05T01:52:58.032Z,10.38
2019-05-05T01:55:41.062Z,14.05
2019-05-05T01:58:17.307Z,10.35
2019-05-05T02:03:28.039Z,9.20
2019-05-05T02:08:38.889Z,10.08
2019-05-05T02:11:15.647Z,14.13
2019-05-05T02:13:59.307Z,11.93
2019-05-05T02:16:35.682Z,10.63
2019-05-05T02:24:05.235Z,9.85
2019-05-05T02:26:41.118Z,11.25
2019-05-05T02:29:30.208Z,9.45
2019-05-05T02:32:28.513Z,11.45
2019-05-05T02:35:15.897Z,11.57
2019-05-05T02:37:50.553Z,12.15
2019-05-05T02:42:59.852Z,10.60
2019-05-05T02:46:14.520Z,16.80
2019-05-05T02:48:54.876Z,11.53
2019-05-05T02:51:39.337Z,14.18
2019-05-05T02:54:29.911Z,10.65
2019-05-05T02:57:13.465Z,11.78
2019-05-05T02:59:55.675Z,10.80
2019-05-05T03:05:08.038Z,12.00
2019-05-05T03:07:58.581Z,12.23
2019-05-05T03:10:48.129Z,11.85
2019-05-05T03:13:31.058Z,12.23
2019-05-05T03:16:20.998Z,10.70
2019-05-05T03:21:30.820Z,14.78
2019-05-05T03:24:14.432Z,13.15
2019-05-05T03:26:51.076Z,15.28
2019-05-05T03:32:05.482Z,12.65
2019-05-05T03:34:56.046Z,10.75
2019-05-05T03:37:45.864Z,13.55
2019-05-05T03:40:34.295Z,12.40
2019-05-05T03:43:19.286Z,15.63
2019-05-05T03:45:58.316Z,12.30
2019-05-05T03:48:34.697Z,11.45
2019-05-05T03:56:14.017Z,11.85
2019-05-05T03:58:58.382Z,10.38
2019-05-05T04:01:43.868Z,12.40
2019-05-05T04:04:24.437Z,12.90
2019-05-05T04:07:14.422Z,10.15
2019-05-05T04:09:49.251Z,10.35
2019-05-05T04:12:31.761Z,11.30
2019-05-05T04:15:20.476Z,10.08
2019-05-05T04:18:07.959Z,9.55
2019-05-05T04:20:44.410Z,14.47
2019-05-05T04:25:54.716Z,12.23
2019-05-05T04:28:30.800Z,14.43
2019-05-05T04:31:14.332Z,12.30
2019-05-05T04:33:49.853Z,10.95
2019-05-05T04:36:34.055Z,12.23
2019-05-05T04:39:10.850Z,12.15
2019-05-05T04:41:54.550Z,13.18
2019-05-05T04:44:30.685Z,13.55
2019-05-05T04:47:19.900Z,12.33
2019-05-05T04:50:07.342Z,12.28
2019-05-05T04:52:50.176Z,12.80
2019-05-05T04:55:27.681Z,12.33
2019-05-05T05:06:08.659Z,11.20
2019-05-05T05:08:58.399Z,12.45
2019-05-05T05:14:08.638Z,12.75
2019-05-05T05:16:44.911Z,17.25
2019-05-05T05:19:27.529Z,12.25
2019-05-05T05:22:04.908Z,14.95
2019-05-05T05:24:47.927Z,17.52
2019-05-05T05:27:24.474Z,19.27
2019-05-05T05:30:06.884Z,14.98
2019-05-05T05:32:44.564Z,13.22
2019-05-05T05:40:29.330Z,11.95
2019-05-05T05:43:14.015Z,12.50
2019-05-05T05:46:28.208Z,17.80
2019-05-05T05:49:29.562Z,13.90
2019-05-05T05:52:13.464Z,12.35
2019-05-05T05:54:49.921Z,14.93
2019-05-05T05:57:25.800Z,10.85
2019-05-05T06:00:07.922Z,11.03
2019-05-05T06:02:44.137Z,11.33
2019-05-05T06:05:26.832Z,10.60
2019-05-05T06:08:04.809Z,9.20
2019-05-05T06:10:47.446Z,11.20
2019-05-05T06:13:15.893Z,10.72
2019-05-05T06:15:53.418Z,12.45
2019-05-05T06:18:29.098Z,9.75
2019-05-05T06:21:13.605Z,13.03
2019-05-05T06:23:49.480Z,9.75
2019-05-05T06:26:17.021Z,10.23
2019-05-05T06:28:59.596Z,12.78
2019-05-05T06:31:35.666Z,9.43
2019-05-05T06:34:18.982Z,10.10
2019-05-05T06:36:55.070Z,11.70
2019-05-05T06:39:38.117Z,13.28
2019-05-05T06:42:40.000Z,10.10
2019-05-05T06:45:29.740Z,13.93
2019-05-05T06:47:58.347Z,15.35
2019-05-05T06:50:40.330Z,9.33
2019-05-05T06:53:30.207Z,10.95
2019-05-05T06:56:14.630Z,12.45
2019-05-05T06:58:49.819Z,12.75
2019-05-05T07:01:33.838Z,16.77
2019-05-05T07:04:10.786Z,15.50
2019-05-05T07:06:56.289Z,12.95
2019-05-05T07:09:33.449Z,11.53
2019-05-05T07:12:16.176Z,17.23
2019-05-05T07:14:53.835Z,19.92
2019-05-05T07:22:24.369Z,24.32
2019-05-05T07:25:06.698Z,22.10
2019-05-05T07:27:44.290Z,19.98
2019-05-05T07:30:26.742Z,26.55
2019-05-05T07:33:04.601Z,25.57
2019-05-05T07:35:59.542Z,24.55
2019-05-05T07:38:33.695Z,24.57
2019-05-05T07:43:43.850Z,24.70
2019-05-05T07:46:20.083Z,25.50
2019-05-05T07:49:03.887Z,23.67
2019-05-05T07:51:40.345Z,23.35
2019-05-05T07:54:23.633Z,17.73
2019-05-05T07:57:05.721Z,17.23
2019-05-05T07:59:42.017Z,18.12
2019-05-05T08:02:24.735Z,32.65
2019-05-05T08:05:00.934Z,21.80
2019-05-05T08:07:44.674Z,20.48
2019-05-05T08:10:20.593Z,25.37
2019-05-05T08:13:04.660Z,28.02
2019-05-05T08:15:56.006Z,24.35
2019-05-05T08:18:25.913Z,23.15
2019-05-05T08:21:30.189Z,25.80
2019-05-05T08:24:08.754Z,24.25
2019-05-05T08:27:04.739Z,31.20
2019-05-05T08:29:46.429Z,20.68
2019-05-05T08:32:33.553Z,24.98
2019-05-05T08:35:01.751Z,27.13
2019-05-05T08:37:43.713Z,22.13
2019-05-05T08:40:34.551Z,21.25
2019-05-05T08:45:46.185Z,23.90
2019-05-05T08:48:28.443Z,24.47
2019-05-05T08:50:56.078Z,22.87
2019-05-05T08:53:42.457Z,25.77
2019-05-05T08:56:14.625Z,27.70
2019-05-05T08:58:50.937Z,25.75
2019-05-05T09:01:34.314Z,27.70
2019-05-05T09:04:10.586Z,23.27
2019-05-05T09:09:24.161Z,19.00
2019-05-05T09:12:00.745Z,21.80
2019-05-05T09:14:44.921Z,24.73
2019-05-05T09:17:20.681Z,22.33
2019-05-05T09:20:06.561Z,24.13
2019-05-05T09:22:44.536Z,22.73
2019-05-05T09:25:34.034Z,23.33
2019-05-05T09:28:27.963Z,18.80
2019-05-05T09:33:44.761Z,20.50
2019-05-05T09:38:55.952Z,20.13
2019-05-05T09:41:45.372Z,19.30
2019-05-05T09:49:33.870Z,25.30
2019-05-05T09:52:10.503Z,20.77
2019-05-05T09:54:54.469Z,16.33
2019-05-05T09:57:23.698Z,19.50
2019-05-05T10:00:18.217Z,16.40
2019-05-05T10:02:45.959Z,19.37
2019-05-05T10:05:29.907Z,13.47
2019-05-05T10:07:58.597Z,17.03
2019-05-05T10:10:44.073Z,10.33
2019-05-05T10:13:33.809Z,9.90
2019-05-05T10:18:48.949Z,14.47
2019-05-05T10:21:25.195Z,18.03
2019-05-05T10:24:25.465Z,13.53
2019-05-05T10:26:49.327Z,18.83
2019-05-05T10:29:33.463Z,14.13
2019-05-05T10:32:09.914Z,17.83
2019-05-05T10:34:53.852Z,15.00
2019-05-05T10:37:24.337Z,14.10
2019-05-05T10:40:07.408Z,9.90
2019-05-05T10:43:00.125Z,14.03
2019-05-05T10:50:40.700Z,14.67
2019-05-05T10:53:17.457Z,9.43
2019-05-05T10:58:19.364Z,7.90
2019-05-05T11:01:04.232Z,10.40
2019-05-05T11:03:52.335Z,14.13
2019-05-05T11:06:44.096Z,12.10
2019-05-05T11:09:29.678Z,11.30
2019-05-05T11:12:04.052Z,12.13
2019-05-05T11:14:50.152Z,10.80
2019-05-05T11:17:27.516Z,16.67
2019-05-05T11:20:04.630Z,11.17
2019-05-05T11:22:43.851Z,16.03
2019-05-05T11:25:28.689Z,13.67
2019-05-05T11:28:20.240Z,15.83
2019-05-05T11:33:54.168Z,11.40
2019-05-05T11:36:49.642Z,12.50
2019-05-05T11:39:34.243Z,14.47
2019-05-05T11:42:10.832Z,12.07
2019-05-05T11:45:11.342Z,13.20
2019-05-05T11:47:49.854Z,24.00
2019-05-05T11:55:27.627Z,8.63
2019-05-05T11:58:04.489Z,11.03
2019-05-05T12:00:48.079Z,13.37
2019-05-05T12:03:25.094Z,13.33
2019-05-05T12:06:09.778Z,11.77
2019-05-05T12:08:45.087Z,8.67
2019-05-05T12:11:25.542Z,13.55
2019-05-05T12:14:11.534Z,16.80
2019-05-05T12:16:47.658Z,20.30
2019-05-05T12:19:15.222Z,19.67
2019-05-05T12:21:44.176Z,11.80
2019-05-05T12:24:33.757Z,8.63
2019-05-05T12:27:03.561Z,11.20
2019-05-05T12:29:51.281Z,5.08
2019-05-05T12:32:18.873Z,8.03
2019-05-05T12:35:04.290Z,8.28
2019-05-05T12:37:34.108Z,6.55
2019-05-05T12:40:01.033Z,6.33
2019-05-05T12:42:50.689Z,7.25
2019-05-05T12:45:29.701Z,10.18
2019-05-05T12:48:28.645Z,9.38
2019-05-05T12:51:14.831Z,6.17
2019-05-05T12:53:55.181Z,6.85
2019-05-05T12:59:07.216Z,7.53
2019-05-05T13:01:55.847Z,11.88
2019-05-05T13:04:38.362Z,10.08
2019-05-05T13:07:14.091Z,11.63
2019-05-05T13:09:56.277Z,11.57
2019-05-05T13:12:34.407Z,11.60
2019-05-05T13:17:45.835Z,12.33
2019-05-05T13:20:55.240Z,7.87
2019-05-05T13:23:36.033Z,13.00
2019-05-05T13:26:27.340Z,8.23
2019-05-05T13:29:04.196Z,9.40
2019-05-05T13:31:47.131Z,11.47
2019-05-05T13:34:23.631Z,10.30
2019-05-05T13:37:06.054Z,9.63
2019-05-05T13:39:47.421Z,7.37
2019-05-05T13:42:29.626Z,7.73
2019-05-05T13:45:14.519Z,10.70
2019-05-05T13:47:56.882Z,8.55
2019-05-05T13:50:37.947Z,7.92
2019-05-05T13:55:49.454Z,8.87
2019-05-05T13:58:34.164Z,12.20
2019-05-05T14:01:10.147Z,10.20
2019-05-05T14:03:56.088Z,10.88
2019-05-05T14:06:33.398Z,10.13
2019-05-05T14:09:16.405Z,12.82
2019-05-05T14:11:53.528Z,8.90
2019-05-05T14:14:37.024Z,11.57
2019-05-05T14:17:14.617Z,13.28
2019-05-05T14:20:04.626Z,7.92
2019-05-05T14:22:34.925Z,6.85
2019-05-05T14:27:45.493Z,11.10
2019-05-05T14:30:21.202Z,8.75
2019-05-05T14:38:16.165Z,10.20
2019-05-05T14:41:09.035Z,14.03
2019-05-05T14:43:45.190Z,12.55
2019-05-05T14:46:27.924Z,11.73
2019-05-05T14:49:05.682Z,9.00
2019-05-05T14:51:48.492Z,11.30
2019-05-05T14:54:25.168Z,11.35
2019-05-05T14:57:07.475Z,10.63
2019-05-05T14:59:43.668Z,9.30
2019-05-05T15:02:26.116Z,11.43
2019-05-05T15:05:21.252Z,16.05
2019-05-05T15:08:26.452Z,6.20
2019-05-05T15:11:10.794Z,12.30
2019-05-05T15:16:21.769Z,11.83
2019-05-05T15:19:05.341Z,9.67
2019-05-05T15:21:48.837Z,17.50
2019-05-05T15:24:33.599Z,10.63
2019-05-05T15:27:09.950Z,11.93
2019-05-05T15:37:20.986Z,7.60
2019-05-05T15:39:48.789Z,7.77
2019-05-05T15:42:22.791Z,12.20
2019-05-05T15:44:58.629Z,15.27
2019-05-05T15:47:43.575Z,9.90
2019-05-05T15:50:19.845Z,8.87
2019-05-05T15:55:30.311Z,12.20
2019-05-05T15:58:05.273Z,9.20
2019-05-05T16:03:15.902Z,12.10
2019-05-05T16:05:58.870Z,10.40
2019-05-05T16:08:34.361Z,5.53
2019-05-05T16:11:17.639Z,13.30
2019-05-05T16:13:54.504Z,9.90
2019-05-05T16:19:49.197Z,8.97
2019-05-05T16:22:36.781Z,11.30
2019-05-05T16:25:13.801Z,11.57
2019-05-05T16:27:58.139Z,11.60
2019-05-05T16:30:34.929Z,9.23
2019-05-05T16:33:19.187Z,12.73
2019-05-05T16:35:55.038Z,10.53
2019-05-05T16:38:39.109Z,14.60
2019-05-05T16:41:18.064Z,12.23
2019-05-05T16:48:58.467Z,8.63
2019-05-05T16:51:38.818Z,9.90
2019-05-05T16:54:19.550Z,12.60
2019-05-05T16:56:55.108Z,14.25
2019-05-05T16:59:23.775Z,13.90
2019-05-05T17:02:08.968Z,11.60
2019-05-05T17:04:57.584Z,12.17
2019-05-05T17:07:40.195Z,10.05
2019-05-05T17:10:16.097Z,10.13
2019-05-05T17:15:53.526Z,7.10
2019-05-05T17:18:57.896Z,5.67
2019-05-05T17:22:06.776Z,5.30
2019-05-05T17:24:50.694Z,4.62
2019-05-05T17:27:19.007Z,11.22
2019-05-05T17:30:04.411Z,6.85
2019-05-05T17:32:55.919Z,5.92
2019-05-05T17:35:38.773Z,7.33
2019-05-05T17:38:19.696Z,5.85
2019-05-05T17:44:14.143Z,7.95
2019-05-05T17:47:04.480Z,9.23
2019-05-05T17:49:51.243Z,9.30
2019-05-05T17:52:53.792Z,8.63
2019-05-05T17:55:33.643Z,8.40
2019-05-05T18:01:04.219Z,8.78
2019-05-05T18:03:40.261Z,13.15
2019-05-05T18:06:34.451Z,8.88
2019-05-05T18:09:23.415Z,11.63
2019-05-05T18:12:23.712Z,19.32
2019-05-05T18:15:00.643Z,15.00
2019-05-05T18:17:28.308Z,12.18
2019-05-05T18:22:29.860Z,10.32
2019-05-05T18:25:14.244Z,11.55
2019-05-05T18:27:50.170Z,11.45
2019-05-05T18:30:33.492Z,21.35
2019-05-05T18:33:09.991Z,28.57
2019-05-05T18:35:54.410Z,37.33
2019-05-05T18:38:30.855Z,32.85
2019-05-05T18:44:00.779Z,36.63
2019-05-05T18:46:29.069Z,15.05
2019-05-05T18:49:13.898Z,16.23
2019-05-05T18:51:56.895Z,17.27
2019-05-05T18:54:33.959Z,12.00
2019-05-05T18:57:17.862Z,18.65
2019-05-05T18:59:54.409Z,59.90
2019-05-05T19:02:58.639Z,46.75
2019-05-05T19:05:55.521Z,17.95
2019-05-05T19:08:51.877Z,14.63
2019-05-05T19:11:24.625Z,9.70
2019-05-05T19:14:00.454Z,9.40
2019-05-05T19:16:42.481Z,9.35
2019-05-05T19:19:18.737Z,11.22
2019-05-05T19:22:05.087Z,13.43
2019-05-05T19:24:35.315Z,11.83
2019-05-05T19:27:24.600Z,11.15
2019-05-05T19:29:53.652Z,19.02
2019-05-05T19:32:36.954Z,12.65
2019-05-05T19:35:14.045Z,10.93
2019-05-05T19:37:57.245Z,8.93
2019-05-05T19:40:25.577Z,10.65
2019-05-05T19:43:01.282Z,10.28
2019-05-05T19:45:39.001Z,13.70
2019-05-05T19:48:51.026Z,9.43
2019-05-05T19:51:36.690Z,18.23
2019-05-05T19:54:14.358Z,25.65
2019-05-05T19:56:58.229Z,19.40
2019-05-05T19:59:35.841Z,24.67
2019-05-05T20:02:19.018Z,24.50
2019-05-05T20:04:54.838Z,17.37
2019-05-05T20:07:37.632Z,17.52
2019-05-05T20:10:14.739Z,12.88
2019-05-05T20:12:59.083Z,21.07
2019-05-05T20:15:41.800Z,19.48
2019-05-05T20:18:24.888Z,12.80
2019-05-05T20:21:03.626Z,18.32
2019-05-05T20:23:21.707Z,18.75
2019-05-05T20:26:10.070Z,22.27
2019-05-05T20:28:38.850Z,25.30
2019-05-05T20:31:23.798Z,18.00
2019-05-05T20:34:21.427Z,19.23
2019-05-05T20:37:17.623Z,17.07
2019-05-05T20:39:54.536Z,14.15
2019-05-05T20:42:37.295Z,9.68
2019-05-05T20:45:15.779Z,12.82
2019-05-05T20:47:58.025Z,13.00
2019-05-05T20:50:34.435Z,16.73
2019-05-05T20:53:17.765Z,20.25
2019-05-05T20:55:54.614Z,20.27
2019-05-05T21:03:34.808Z,33.98
2019-05-05T21:06:10.602Z,25.02
2019-05-05T21:11:21.632Z,28.73
2019-05-05T21:14:04.655Z,18.02
2019-05-05T21:16:41.177Z,13.93
2019-05-05T21:19:24.780Z,16.40
2019-05-05T21:22:20.198Z,13.32
2019-05-05T21:25:04.864Z,10.68
2019-05-05T21:27:41.125Z,18.15
2019-05-05T21:30:23.871Z,15.03
2019-05-05T21:33:04.328Z,17.95
2019-05-05T21:38:15.208Z,11.75
2019-05-05T21:40:50.982Z,10.15
2019-05-05T21:43:34.252Z,10.93
2019-05-05T21:46:10.854Z,13.93
2019-05-05T21:51:21.468Z,14.98
2019-05-05T21:54:28.250Z,15.60
2019-05-05T21:57:25.526Z,12.00
2019-05-05T22:00:08.728Z,13.40
2019-05-05T22:02:51.355Z,14.35
2019-05-05T22:05:27.428Z,10.82
2019-05-05T22:07:54.958Z,11.05
2019-05-05T22:10:24.431Z,11.18
2019-05-05T22:13:06.489Z,15.58
2019-05-05T22:15:55.743Z,11.05
2019-05-05T22:18:30.736Z,23.15
2019-05-05T22:20:59.097Z,21.33
2019-05-05T22:23:43.922Z,12.03
2019-05-05T22:26:25.895Z,10.30
2019-05-05T22:29:02.056Z,25.92
2019-05-05T22:31:44.133Z,27.05
2019-05-05T22:34:20.693Z,21.55
2019-05-05T22:37:07.525Z,17.07
2019-05-05T22:39:44.373Z,17.05
2019-05-05T22:44:52.957Z,18.55
2019-05-05T22:47:29.173Z,19.87
2019-05-05T22:50:13.828Z,13.58
2019-05-05T22:52:50.347Z,9.33
2019-05-05T22:55:34.371Z,11.15
2019-05-05T22:58:04.016Z,12.90
2019-05-05T23:00:46.692Z,16.93
2019-05-05T23:06:27.985Z,14.10
2019-05-05T23:09:04.795Z,9.48
2019-05-05T23:16:50.089Z,12.67
2019-05-05T23:19:35.805Z,13.22
2019-05-05T23:22:19.975Z,14.65
2019-05-05T23:27:54.753Z,14.75
2019-05-05T23:30:41.168Z,12.43
2019-05-05T23:33:28.278Z,10.23
2019-05-05T23:36:10.619Z,16.52
2019-05-05T23:38:47.105Z,16.23
2019-05-05T23:41:29.414Z,11.28
2019-05-05T23:44:05.461Z,19.70
2019-05-05T23:51:45.045Z,12.73
2019-05-05T23:54:28.627Z,13.53
2019-05-05T23:57:11.163Z,13.13
2019-05-05T23:59:47.034Z,11.60
